sensor_id;sensor_type;location;lat;lon;timestamp;P1;durP1;ratioP1;P2;durP2;ratioP2
51862;SDS011;37900;52.996;6.278;2023-02-15T00:01:32;8.03;;;6.53;;
51862;SDS011;37900;52.996;6.278;2023-02-15T00:03:58;9.75;;;6.75;;
51862;SDS011;37900;52.996;6.278;2023-02-15T00:06:24;9.93;;;7.57;;
51862;SDS011;37900;52.996;6.278;2023-02-15T00:08:50;7.93;;;6.15;;
51862;SDS011;37900;52.996;6.278;2023-02-15T00:11:16;7.88;;;6.70;;
51862;SDS011;37900;52.996;6.278;2023-02-15T00:14:07;7.95;;;6.55;;
51862;SDS011;37900;52.996;6.278;2023-02-15T00:16:59;10.02;;;7.20;;
51862;SDS011;37900;52.996;6.278;2023-02-15T00:19:25;8.82;;;6.97;;
51862;SDS011;37900;52.996;6.278;2023-02-15T00:21:50;9.40;;;7.38;;
51862;SDS011;37900;52.996;6.278;2023-02-15T00:24:17;8.07;;;7.22;;
51862;SDS011;37900;52.996;6.278;2023-02-15T00:26:44;8.48;;;6.85;;
51862;SDS011;37900;52.996;6.278;2023-02-15T00:29:11;7.95;;;6.72;;
51862;SDS011;37900;52.996;6.278;2023-02-15T00:31:38;8.93;;;6.90;;
51862;SDS011;37900;52.996;6.278;2023-02-15T00:34:11;8.18;;;7.03;;
51862;SDS011;37900;52.996;6.278;2023-02-15T00:36:36;9.63;;;6.85;;
51862;SDS011;37900;52.996;6.278;2023-02-15T00:39:03;8.25;;;6.95;;
51862;SDS011;37900;52.996;6.278;2023-02-15T00:41:30;8.85;;;7.07;;
51862;SDS011;37900;52.996;6.278;2023-02-15T00:43:56;8.88;;;7.38;;
51862;SDS011;37900;52.996;6.278;2023-02-15T00:46:21;9.18;;;7.40;;
51862;SDS011;37900;52.996;6.278;2023-02-15T00:48:47;9.63;;;7.15;;
51862;SDS011;37900;52.996;6.278;2023-02-15T00:51:13;9.15;;;6.78;;
51862;SDS011;37900;52.996;6.278;2023-02-15T00:53:39;8.50;;;6.75;;
51862;SDS011;37900;52.996;6.278;2023-02-15T00:56:04;7.53;;;6.20;;
51862;SDS011;37900;52.996;6.278;2023-02-15T00:58:30;7.90;;;6.55;;
51862;SDS011;37900;52.996;6.278;2023-02-15T01:01:01;7.50;;;6.70;;
51862;SDS011;37900;52.996;6.278;2023-02-15T01:03:38;10.05;;;7.70;;
51862;SDS011;37900;52.996;6.278;2023-02-15T01:06:04;9.48;;;6.80;;
51862;SDS011;37900;52.996;6.278;2023-02-15T01:08:30;8.38;;;6.70;;
51862;SDS011;37900;52.996;6.278;2023-02-15T01:10:56;8.50;;;7.10;;
51862;SDS011;37900;52.996;6.278;2023-02-15T01:13:22;7.78;;;6.68;;
51862;SDS011;37900;52.996;6.278;2023-02-15T01:15:54;8.52;;;6.82;;
51862;SDS011;37900;52.996;6.278;2023-02-15T01:18:21;7.45;;;6.57;;
51862;SDS011;37900;52.996;6.278;2023-02-15T01:20:47;7.32;;;6.28;;
51862;SDS011;37900;52.996;6.278;2023-02-15T01:23:13;7.10;;;6.18;;
51862;SDS011;37900;52.996;6.278;2023-02-15T01:25:39;8.90;;;6.97;;
51862;SDS011;37900;52.996;6.278;2023-02-15T01:28:05;8.30;;;6.80;;
51862;SDS011;37900;52.996;6.278;2023-02-15T01:30:31;7.78;;;6.80;;
51862;SDS011;37900;52.996;6.278;2023-02-15T01:32:57;9.23;;;7.25;;
51862;SDS011;37900;52.996;6.278;2023-02-15T01:35:23;8.50;;;6.47;;
51862;SDS011;37900;52.996;6.278;2023-02-15T01:37:49;7.20;;;6.25;;
51862;SDS011;37900;52.996;6.278;2023-02-15T01:40:15;7.57;;;6.35;;
51862;SDS011;37900;52.996;6.278;2023-02-15T01:42:42;8.57;;;7.20;;
51862;SDS011;37900;52.996;6.278;2023-02-15T01:47:56;9.80;;;7.57;;
51862;SDS011;37900;52.996;6.278;2023-02-15T01:50:28;7.38;;;6.22;;
51862;SDS011;37900;52.996;6.278;2023-02-15T01:55:42;7.97;;;6.30;;
51862;SDS011;37900;52.996;6.278;2023-02-15T01:58:11;8.25;;;6.30;;
51862;SDS011;37900;52.996;6.278;2023-02-15T02:00:39;8.32;;;6.68;;
51862;SDS011;37900;52.996;6.278;2023-02-15T02:03:05;7.68;;;5.95;;
51862;SDS011;37900;52.996;6.278;2023-02-15T02:05:31;7.18;;;6.45;;
51862;SDS011;37900;52.996;6.278;2023-02-15T02:07:58;8.30;;;6.72;;
51862;SDS011;37900;52.996;6.278;2023-02-15T02:10:27;7.88;;;6.20;;
51862;SDS011;37900;52.996;6.278;2023-02-15T02:13:03;8.27;;;6.40;;
51862;SDS011;37900;52.996;6.278;2023-02-15T02:15:42;8.10;;;6.85;;
51862;SDS011;37900;52.996;6.278;2023-02-15T02:18:37;7.22;;;6.15;;
51862;SDS011;37900;52.996;6.278;2023-02-15T02:40:07;8.20;;;6.65;;
51862;SDS011;37900;52.996;6.278;2023-02-15T02:45:30;6.93;;;6.22;;
51862;SDS011;37900;52.996;6.278;2023-02-15T02:48:18;7.72;;;6.38;;
51862;SDS011;37900;52.996;6.278;2023-02-15T02:50:47;7.25;;;6.55;;
51862;SDS011;37900;52.996;6.278;2023-02-15T02:53:13;7.38;;;6.07;;
51862;SDS011;37900;52.996;6.278;2023-02-15T02:58:48;7.57;;;5.87;;
51862;SDS011;37900;52.996;6.278;2023-02-15T03:01:25;7.18;;;5.68;;
51862;SDS011;37900;52.996;6.278;2023-02-15T03:03:57;6.78;;;5.72;;
51862;SDS011;37900;52.996;6.278;2023-02-15T03:09:15;6.85;;;5.80;;
51862;SDS011;37900;52.996;6.278;2023-02-15T03:12:10;7.60;;;5.80;;
51862;SDS011;37900;52.996;6.278;2023-02-15T03:14:40;8.80;;;6.18;;
51862;SDS011;37900;52.996;6.278;2023-02-15T03:17:09;6.80;;;5.72;;
51862;SDS011;37900;52.996;6.278;2023-02-15T03:19:37;7.32;;;6.10;;
51862;SDS011;37900;52.996;6.278;2023-02-15T03:22:05;6.65;;;5.70;;
51862;SDS011;37900;52.996;6.278;2023-02-15T03:25:05;9.23;;;6.15;;
51862;SDS011;37900;52.996;6.278;2023-02-15T03:27:33;6.90;;;6.20;;
51862;SDS011;37900;52.996;6.278;2023-02-15T03:30:06;7.90;;;5.63;;
51862;SDS011;37900;52.996;6.278;2023-02-15T03:32:33;7.78;;;5.90;;
51862;SDS011;37900;52.996;6.278;2023-02-15T03:35:02;6.18;;;5.57;;
51862;SDS011;37900;52.996;6.278;2023-02-15T03:37:32;7.97;;;6.47;;
51862;SDS011;37900;52.996;6.278;2023-02-15T03:43:00;7.05;;;5.55;;
51862;SDS011;37900;52.996;6.278;2023-02-15T03:45:36;6.63;;;5.93;;
51862;SDS011;37900;52.996;6.278;2023-02-15T03:48:20;6.90;;;6.00;;
51862;SDS011;37900;52.996;6.278;2023-02-15T03:50:53;6.88;;;5.88;;
51862;SDS011;37900;52.996;6.278;2023-02-15T03:53:42;8.07;;;5.82;;
51862;SDS011;37900;52.996;6.278;2023-02-15T03:58:35;5.90;;;5.30;;
51862;SDS011;37900;52.996;6.278;2023-02-15T04:01:26;7.00;;;5.80;;
51862;SDS011;37900;52.996;6.278;2023-02-15T04:04:20;7.05;;;5.72;;
51862;SDS011;37900;52.996;6.278;2023-02-15T04:06:48;5.63;;;4.78;;
51862;SDS011;37900;52.996;6.278;2023-02-15T04:09:14;6.90;;;5.40;;
51862;SDS011;37900;52.996;6.278;2023-02-15T04:11:58;7.55;;;5.28;;
51862;SDS011;37900;52.996;6.278;2023-02-15T04:14:24;6.43;;;5.28;;
51862;SDS011;37900;52.996;6.278;2023-02-15T04:17:29;6.13;;;5.40;;
51862;SDS011;37900;52.996;6.278;2023-02-15T04:19:54;6.20;;;4.90;;
51862;SDS011;37900;52.996;6.278;2023-02-15T04:22:39;6.32;;;5.28;;
51862;SDS011;37900;52.996;6.278;2023-02-15T04:25:23;6.97;;;5.85;;
51862;SDS011;37900;52.996;6.278;2023-02-15T04:27:50;7.22;;;5.97;;
51862;SDS011;37900;52.996;6.278;2023-02-15T04:30:18;6.63;;;5.18;;
51862;SDS011;37900;52.996;6.278;2023-02-15T04:32:45;5.95;;;5.15;;
51862;SDS011;37900;52.996;6.278;2023-02-15T04:35:12;5.72;;;5.13;;
51862;SDS011;37900;52.996;6.278;2023-02-15T04:37:38;5.40;;;4.90;;
51862;SDS011;37900;52.996;6.278;2023-02-15T04:40:05;5.88;;;5.03;;
51862;SDS011;37900;52.996;6.278;2023-02-15T04:42:32;6.97;;;5.35;;
51862;SDS011;37900;52.996;6.278;2023-02-15T04:44:58;5.97;;;4.97;;
51862;SDS011;37900;52.996;6.278;2023-02-15T04:47:24;6.30;;;5.25;;
51862;SDS011;37900;52.996;6.278;2023-02-15T04:49:50;6.63;;;5.10;;
51862;SDS011;37900;52.996;6.278;2023-02-15T04:52:15;5.70;;;5.00;;
51862;SDS011;37900;52.996;6.278;2023-02-15T04:54:43;6.30;;;5.38;;
51862;SDS011;37900;52.996;6.278;2023-02-15T04:57:09;6.57;;;5.88;;
51862;SDS011;37900;52.996;6.278;2023-02-15T04:59:35;4.72;;;4.22;;
51862;SDS011;37900;52.996;6.278;2023-02-15T05:02:00;5.70;;;4.80;;
51862;SDS011;37900;52.996;6.278;2023-02-15T05:04:26;6.07;;;5.32;;
51862;SDS011;37900;52.996;6.278;2023-02-15T05:06:52;5.63;;;4.78;;
51862;SDS011;37900;52.996;6.278;2023-02-15T05:09:17;5.38;;;4.82;;
51862;SDS011;37900;52.996;6.278;2023-02-15T05:11:43;5.85;;;4.90;;
51862;SDS011;37900;52.996;6.278;2023-02-15T05:14:09;5.65;;;4.93;;
51862;SDS011;37900;52.996;6.278;2023-02-15T05:16:34;7.13;;;4.80;;
51862;SDS011;37900;52.996;6.278;2023-02-15T05:19:00;5.05;;;4.32;;
51862;SDS011;37900;52.996;6.278;2023-02-15T05:21:26;5.70;;;5.05;;
51862;SDS011;37900;52.996;6.278;2023-02-15T05:23:52;5.30;;;4.80;;
51862;SDS011;37900;52.996;6.278;2023-02-15T05:26:20;5.28;;;4.63;;
51862;SDS011;37900;52.996;6.278;2023-02-15T05:29:06;5.45;;;4.75;;
51862;SDS011;37900;52.996;6.278;2023-02-15T05:31:32;6.07;;;4.60;;
51862;SDS011;37900;52.996;6.278;2023-02-15T05:33:59;5.83;;;4.70;;
51862;SDS011;37900;52.996;6.278;2023-02-15T05:36:24;4.85;;;4.10;;
51862;SDS011;37900;52.996;6.278;2023-02-15T05:38:50;5.25;;;4.72;;
51862;SDS011;37900;52.996;6.278;2023-02-15T05:41:16;5.50;;;4.43;;
51862;SDS011;37900;52.996;6.278;2023-02-15T05:43:41;5.65;;;5.00;;
51862;SDS011;37900;52.996;6.278;2023-02-15T05:46:07;4.60;;;3.90;;
51862;SDS011;37900;52.996;6.278;2023-02-15T05:48:33;5.55;;;4.88;;
51862;SDS011;37900;52.996;6.278;2023-02-15T05:51:10;5.00;;;4.45;;
51862;SDS011;37900;52.996;6.278;2023-02-15T05:53:38;5.82;;;4.65;;
51862;SDS011;37900;52.996;6.278;2023-02-15T05:56:05;5.20;;;4.43;;
51862;SDS011;37900;52.996;6.278;2023-02-15T05:58:34;4.80;;;4.30;;
51862;SDS011;37900;52.996;6.278;2023-02-15T06:01:10;4.75;;;4.25;;
51862;SDS011;37900;52.996;6.278;2023-02-15T06:03:37;6.00;;;4.70;;
51862;SDS011;37900;52.996;6.278;2023-02-15T06:06:04;5.85;;;4.90;;
51862;SDS011;37900;52.996;6.278;2023-02-15T06:08:30;5.20;;;4.70;;
51862;SDS011;37900;52.996;6.278;2023-02-15T06:10:56;5.40;;;4.90;;
51862;SDS011;37900;52.996;6.278;2023-02-15T06:13:22;5.25;;;4.38;;
51862;SDS011;37900;52.996;6.278;2023-02-15T06:15:48;5.05;;;4.55;;
51862;SDS011;37900;52.996;6.278;2023-02-15T06:18:13;5.22;;;4.50;;
51862;SDS011;37900;52.996;6.278;2023-02-15T06:20:39;5.88;;;5.07;;
51862;SDS011;37900;52.996;6.278;2023-02-15T06:23:05;6.22;;;4.88;;
51862;SDS011;37900;52.996;6.278;2023-02-15T06:25:31;5.57;;;4.95;;
51862;SDS011;37900;52.996;6.278;2023-02-15T06:27:56;5.93;;;4.70;;
51862;SDS011;37900;52.996;6.278;2023-02-15T06:30:22;6.55;;;4.90;;
51862;SDS011;37900;52.996;6.278;2023-02-15T06:32:48;4.88;;;4.18;;
51862;SDS011;37900;52.996;6.278;2023-02-15T06:35:13;6.53;;;4.97;;
51862;SDS011;37900;52.996;6.278;2023-02-15T06:37:39;6.07;;;4.63;;
51862;SDS011;37900;52.996;6.278;2023-02-15T06:40:05;5.47;;;4.40;;
51862;SDS011;37900;52.996;6.278;2023-02-15T06:42:31;4.57;;;4.13;;
51862;SDS011;37900;52.996;6.278;2023-02-15T06:44:57;4.82;;;4.22;;
51862;SDS011;37900;52.996;6.278;2023-02-15T06:47:25;5.10;;;4.50;;
51862;SDS011;37900;52.996;6.278;2023-02-15T06:49:50;5.35;;;4.65;;
51862;SDS011;37900;52.996;6.278;2023-02-15T06:52:16;5.30;;;4.80;;
51862;SDS011;37900;52.996;6.278;2023-02-15T06:54:42;5.03;;;4.47;;
51862;SDS011;37900;52.996;6.278;2023-02-15T06:57:08;5.75;;;4.60;;
51862;SDS011;37900;52.996;6.278;2023-02-15T06:59:34;5.35;;;4.45;;
51862;SDS011;37900;52.996;6.278;2023-02-15T07:02:00;5.90;;;4.25;;
51862;SDS011;37900;52.996;6.278;2023-02-15T07:04:25;4.40;;;4.00;;
51862;SDS011;37900;52.996;6.278;2023-02-15T07:06:53;5.45;;;4.88;;
51862;SDS011;37900;52.996;6.278;2023-02-15T07:09:19;5.68;;;5.07;;
51862;SDS011;37900;52.996;6.278;2023-02-15T07:11:45;5.20;;;4.65;;
51862;SDS011;37900;52.996;6.278;2023-02-15T07:14:29;4.70;;;4.20;;
51862;SDS011;37900;52.996;6.278;2023-02-15T07:16:54;5.10;;;4.53;;
51862;SDS011;37900;52.996;6.278;2023-02-15T07:19:20;5.43;;;4.78;;
51862;SDS011;37900;52.996;6.278;2023-02-15T07:21:46;5.43;;;4.22;;
51862;SDS011;37900;52.996;6.278;2023-02-15T07:24:12;5.35;;;4.03;;
51862;SDS011;37900;52.996;6.278;2023-02-15T07:26:37;4.68;;;4.18;;
51862;SDS011;37900;52.996;6.278;2023-02-15T07:29:03;4.90;;;4.00;;
51862;SDS011;37900;52.996;6.278;2023-02-15T07:31:29;4.43;;;4.03;;
51862;SDS011;37900;52.996;6.278;2023-02-15T07:33:55;4.55;;;4.15;;
51862;SDS011;37900;52.996;6.278;2023-02-15T07:36:21;5.88;;;4.47;;
51862;SDS011;37900;52.996;6.278;2023-02-15T07:38:47;4.50;;;4.10;;
51862;SDS011;37900;52.996;6.278;2023-02-15T07:41:13;5.20;;;4.57;;
51862;SDS011;37900;52.996;6.278;2023-02-15T07:43:41;4.85;;;4.25;;
51862;SDS011;37900;52.996;6.278;2023-02-15T07:46:10;4.40;;;3.97;;
51862;SDS011;37900;52.996;6.278;2023-02-15T07:48:38;4.47;;;4.07;;
51862;SDS011;37900;52.996;6.278;2023-02-15T07:51:05;5.50;;;4.45;;
51862;SDS011;37900;52.996;6.278;2023-02-15T07:53:32;5.03;;;4.10;;
51862;SDS011;37900;52.996;6.278;2023-02-15T07:55:59;4.93;;;4.18;;
51862;SDS011;37900;52.996;6.278;2023-02-15T07:58:25;5.35;;;4.07;;
51862;SDS011;37900;52.996;6.278;2023-02-15T08:01:11;4.68;;;4.15;;
51862;SDS011;37900;52.996;6.278;2023-02-15T08:03:37;4.72;;;3.85;;
51862;SDS011;37900;52.996;6.278;2023-02-15T08:06:03;4.35;;;3.95;;
51862;SDS011;37900;52.996;6.278;2023-02-15T08:08:29;4.88;;;4.28;;
51862;SDS011;37900;52.996;6.278;2023-02-15T08:13:45;5.55;;;4.13;;
51862;SDS011;37900;52.996;6.278;2023-02-15T08:16:29;6.85;;;4.88;;
51862;SDS011;37900;52.996;6.278;2023-02-15T08:21:24;6.53;;;4.88;;
51862;SDS011;37900;52.996;6.278;2023-02-15T08:23:51;5.38;;;4.65;;
51862;SDS011;37900;52.996;6.278;2023-02-15T08:26:18;5.75;;;4.85;;
51862;SDS011;37900;52.996;6.278;2023-02-15T08:28:44;6.53;;;4.97;;
51862;SDS011;37900;52.996;6.278;2023-02-15T08:31:11;9.95;;;4.63;;
51862;SDS011;37900;52.996;6.278;2023-02-15T08:33:39;8.18;;;4.68;;
51862;SDS011;37900;52.996;6.278;2023-02-15T08:36:10;5.25;;;4.45;;
51862;SDS011;37900;52.996;6.278;2023-02-15T08:38:38;7.05;;;4.40;;
51862;SDS011;37900;52.996;6.278;2023-02-15T08:41:12;10.20;;;4.90;;
51862;SDS011;37900;52.996;6.278;2023-02-15T08:43:47;7.03;;;4.88;;
51862;SDS011;37900;52.996;6.278;2023-02-15T08:46:16;4.75;;;4.25;;
51862;SDS011;37900;52.996;6.278;2023-02-15T08:48:43;5.93;;;4.07;;
51862;SDS011;37900;52.996;6.278;2023-02-15T08:53:38;4.30;;;3.90;;
51862;SDS011;37900;52.996;6.278;2023-02-15T08:56:05;9.88;;;4.13;;
51862;SDS011;37900;52.996;6.278;2023-02-15T08:58:32;7.38;;;4.43;;
51862;SDS011;37900;52.996;6.278;2023-02-15T09:00:58;11.88;;;4.72;;
51862;SDS011;37900;52.996;6.278;2023-02-15T09:03:24;4.97;;;3.67;;
51862;SDS011;37900;52.996;6.278;2023-02-15T09:05:50;6.32;;;4.55;;
51862;SDS011;37900;52.996;6.278;2023-02-15T09:08:21;5.63;;;4.10;;
51862;SDS011;37900;52.996;6.278;2023-02-15T09:10:46;5.70;;;4.00;;
51862;SDS011;37900;52.996;6.278;2023-02-15T09:13:12;4.50;;;3.78;;
51862;SDS011;37900;52.996;6.278;2023-02-15T09:15:38;6.53;;;4.40;;
51862;SDS011;37900;52.996;6.278;2023-02-15T09:18:03;5.13;;;4.15;;
51862;SDS011;37900;52.996;6.278;2023-02-15T09:20:31;5.25;;;3.80;;
51862;SDS011;37900;52.996;6.278;2023-02-15T09:23:00;4.97;;;3.97;;
51862;SDS011;37900;52.996;6.278;2023-02-15T09:25:26;5.05;;;4.00;;
51862;SDS011;37900;52.996;6.278;2023-02-15T09:27:53;7.07;;;4.53;;
51862;SDS011;37900;52.996;6.278;2023-02-15T09:30:19;5.53;;;4.22;;
51862;SDS011;37900;52.996;6.278;2023-02-15T09:32:45;6.47;;;4.55;;
51862;SDS011;37900;52.996;6.278;2023-02-15T09:35:12;5.07;;;3.93;;
51862;SDS011;37900;52.996;6.278;2023-02-15T09:37:37;6.45;;;4.10;;
51862;SDS011;37900;52.996;6.278;2023-02-15T09:40:03;5.95;;;3.78;;
51862;SDS011;37900;52.996;6.278;2023-02-15T09:42:42;5.10;;;3.97;;
51862;SDS011;37900;52.996;6.278;2023-02-15T09:56:14;7.90;;;4.03;;
51862;SDS011;37900;52.996;6.278;2023-02-15T10:09:51;5.80;;;4.00;;
51862;SDS011;37900;52.996;6.278;2023-02-15T10:34:06;7.25;;;4.40;;
51862;SDS011;37900;52.996;6.278;2023-02-15T10:44:56;9.02;;;4.97;;
51862;SDS011;37900;52.996;6.278;2023-02-15T10:56:06;9.18;;;5.53;;
51862;SDS011;37900;52.996;6.278;2023-02-15T11:01:37;11.63;;;4.20;;
51862;SDS011;37900;52.996;6.278;2023-02-15T11:06:46;6.43;;;4.35;;
51862;SDS011;37900;52.996;6.278;2023-02-15T11:09:16;5.35;;;4.10;;
51862;SDS011;37900;52.996;6.278;2023-02-15T11:11:48;4.95;;;3.95;;
51862;SDS011;37900;52.996;6.278;2023-02-15T11:17:14;6.15;;;4.10;;
51862;SDS011;37900;52.996;6.278;2023-02-15T11:19:58;6.20;;;3.90;;
51862;SDS011;37900;52.996;6.278;2023-02-15T11:22:27;4.72;;;4.07;;
51862;SDS011;37900;52.996;6.278;2023-02-15T11:24:55;4.38;;;3.88;;
51862;SDS011;37900;52.996;6.278;2023-02-15T11:27:29;6.35;;;4.05;;
51862;SDS011;37900;52.996;6.278;2023-02-15T11:30:36;5.75;;;3.70;;
51862;SDS011;37900;52.996;6.278;2023-02-15T11:33:12;6.22;;;3.78;;
51862;SDS011;37900;52.996;6.278;2023-02-15T11:35:49;9.68;;;4.18;;
51862;SDS011;37900;52.996;6.278;2023-02-15T11:38:23;5.68;;;3.58;;
51862;SDS011;37900;52.996;6.278;2023-02-15T11:46:08;5.43;;;3.90;;
51862;SDS011;37900;52.996;6.278;2023-02-15T11:48:37;4.72;;;4.15;;
51862;SDS011;37900;52.996;6.278;2023-02-15T11:51:03;8.07;;;4.65;;
51862;SDS011;37900;52.996;6.278;2023-02-15T11:53:32;5.88;;;4.03;;
51862;SDS011;37900;52.996;6.278;2023-02-15T11:56:03;4.63;;;4.03;;
51862;SDS011;37900;52.996;6.278;2023-02-15T12:06:57;5.70;;;3.90;;
51862;SDS011;37900;52.996;6.278;2023-02-15T12:15:00;5.63;;;4.30;;
51862;SDS011;37900;52.996;6.278;2023-02-15T12:17:37;7.97;;;4.82;;
51862;SDS011;37900;52.996;6.278;2023-02-15T12:22:45;7.35;;;4.68;;
51862;SDS011;37900;52.996;6.278;2023-02-15T12:25:22;7.90;;;4.72;;
51862;SDS011;37900;52.996;6.278;2023-02-15T12:28:05;9.38;;;4.75;;
51862;SDS011;37900;52.996;6.278;2023-02-15T12:30:49;9.00;;;4.82;;
51862;SDS011;37900;52.996;6.278;2023-02-15T12:33:31;9.27;;;4.35;;
51862;SDS011;37900;52.996;6.278;2023-02-15T12:36:15;10.15;;;4.85;;
51862;SDS011;37900;52.996;6.278;2023-02-15T12:41:37;6.78;;;4.93;;
51862;SDS011;37900;52.996;6.278;2023-02-15T12:44:28;6.00;;;4.65;;
51862;SDS011;37900;52.996;6.278;2023-02-15T12:46:56;6.55;;;4.50;;
51862;SDS011;37900;52.996;6.278;2023-02-15T12:49:41;7.07;;;4.55;;
51862;SDS011;37900;52.996;6.278;2023-02-15T12:52:41;5.88;;;4.50;;
51862;SDS011;37900;52.996;6.278;2023-02-15T12:55:20;7.60;;;4.40;;
51862;SDS011;37900;52.996;6.278;2023-02-15T12:57:48;11.68;;;4.63;;
51862;SDS011;37900;52.996;6.278;2023-02-15T13:02:54;8.52;;;4.35;;
51862;SDS011;37900;52.996;6.278;2023-02-15T13:10:57;8.15;;;4.40;;
51862;SDS011;37900;52.996;6.278;2023-02-15T13:13:35;8.93;;;4.25;;
51862;SDS011;37900;52.996;6.278;2023-02-15T13:16:05;8.05;;;4.40;;
51862;SDS011;37900;52.996;6.278;2023-02-15T13:18:36;8.05;;;4.82;;
51862;SDS011;37900;52.996;6.278;2023-02-15T13:21:06;10.45;;;5.10;;
51862;SDS011;37900;52.996;6.278;2023-02-15T13:23:37;6.10;;;4.38;;
51862;SDS011;37900;52.996;6.278;2023-02-15T13:26:05;5.90;;;4.47;;
51862;SDS011;37900;52.996;6.278;2023-02-15T13:28:41;8.88;;;5.20;;
51862;SDS011;37900;52.996;6.278;2023-02-15T13:31:15;7.95;;;4.65;;
51862;SDS011;37900;52.996;6.278;2023-02-15T13:33:45;8.00;;;4.75;;
51862;SDS011;37900;52.996;6.278;2023-02-15T13:56:02;5.63;;;4.05;;
51862;SDS011;37900;52.996;6.278;2023-02-15T14:15:42;5.60;;;4.43;;
51862;SDS011;37900;52.996;6.278;2023-02-15T14:23:52;6.18;;;4.32;;
51862;SDS011;37900;52.996;6.278;2023-02-15T14:32:09;7.35;;;4.43;;
51862;SDS011;37900;52.996;6.278;2023-02-15T14:34:48;6.65;;;4.10;;
51862;SDS011;37900;52.996;6.278;2023-02-15T14:37:28;5.95;;;4.30;;
51862;SDS011;37900;52.996;6.278;2023-02-15T14:43:19;7.30;;;4.20;;
51862;SDS011;37900;52.996;6.278;2023-02-15T14:45:58;13.13;;;5.32;;
51862;SDS011;37900;52.996;6.278;2023-02-15T14:48:45;7.45;;;4.95;;
51862;SDS011;37900;52.996;6.278;2023-02-15T14:56:41;4.88;;;4.35;;
51862;SDS011;37900;52.996;6.278;2023-02-15T14:59:14;7.85;;;4.43;;
51862;SDS011;37900;52.996;6.278;2023-02-15T15:01:50;6.75;;;4.80;;
51862;SDS011;37900;52.996;6.278;2023-02-15T15:04:28;6.88;;;4.72;;
51862;SDS011;37900;52.996;6.278;2023-02-15T15:07:07;10.68;;;4.90;;
51862;SDS011;37900;52.996;6.278;2023-02-15T15:09:38;6.88;;;4.80;;
51862;SDS011;37900;52.996;6.278;2023-02-15T15:12:52;8.77;;;4.85;;
51862;SDS011;37900;52.996;6.278;2023-02-15T15:14:53;6.53;;;4.20;;
51862;SDS011;37900;52.996;6.278;2023-02-15T15:19:58;7.80;;;4.15;;
51862;SDS011;37900;52.996;6.278;2023-02-15T15:22:30;8.50;;;5.00;;
51862;SDS011;37900;52.996;6.278;2023-02-15T15:35:33;5.82;;;4.15;;
51862;SDS011;37900;52.996;6.278;2023-02-15T15:43:54;6.00;;;4.00;;
51862;SDS011;37900;52.996;6.278;2023-02-15T15:49:09;5.78;;;4.53;;
51862;SDS011;37900;52.996;6.278;2023-02-15T15:51:44;5.72;;;4.50;;
51862;SDS011;37900;52.996;6.278;2023-02-15T15:54:15;7.63;;;4.32;;
51862;SDS011;37900;52.996;6.278;2023-02-15T15:56:47;6.45;;;4.80;;
51862;SDS011;37900;52.996;6.278;2023-02-15T15:59:26;6.22;;;3.70;;
51862;SDS011;37900;52.996;6.278;2023-02-15T16:01:56;5.78;;;4.30;;
51862;SDS011;37900;52.996;6.278;2023-02-15T16:04:33;6.40;;;4.15;;
51862;SDS011;37900;52.996;6.278;2023-02-15T16:07:13;8.05;;;4.47;;
51862;SDS011;37900;52.996;6.278;2023-02-15T16:09:39;5.50;;;3.78;;
51862;SDS011;37900;52.996;6.278;2023-02-15T16:12:10;4.85;;;3.72;;
51862;SDS011;37900;52.996;6.278;2023-02-15T16:14:41;5.60;;;4.15;;
51862;SDS011;37900;52.996;6.278;2023-02-15T16:17:17;6.45;;;3.92;;
51862;SDS011;37900;52.996;6.278;2023-02-15T16:20:04;5.78;;;4.20;;
51862;SDS011;37900;52.996;6.278;2023-02-15T16:22:43;5.00;;;4.35;;
51862;SDS011;37900;52.996;6.278;2023-02-15T16:25:31;4.68;;;3.80;;
51862;SDS011;37900;52.996;6.278;2023-02-15T16:28:05;8.13;;;5.20;;
51862;SDS011;37900;52.996;6.278;2023-02-15T16:30:33;8.05;;;5.20;;
51862;SDS011;37900;52.996;6.278;2023-02-15T16:33:06;11.00;;;5.28;;
51862;SDS011;37900;52.996;6.278;2023-02-15T16:35:34;11.75;;;5.68;;
51862;SDS011;37900;52.996;6.278;2023-02-15T16:38:02;8.32;;;5.10;;
51862;SDS011;37900;52.996;6.278;2023-02-15T16:42:55;7.72;;;5.30;;
51862;SDS011;37900;52.996;6.278;2023-02-15T16:45:25;8.93;;;5.20;;
51862;SDS011;37900;52.996;6.278;2023-02-15T16:47:53;7.95;;;4.72;;
51862;SDS011;37900;52.996;6.278;2023-02-15T16:50:36;7.25;;;5.32;;
51862;SDS011;37900;52.996;6.278;2023-02-15T16:53:03;11.20;;;5.68;;
51862;SDS011;37900;52.996;6.278;2023-02-15T16:55:35;8.25;;;5.50;;
51862;SDS011;37900;52.996;6.278;2023-02-15T16:58:06;6.68;;;4.70;;
51862;SDS011;37900;52.996;6.278;2023-02-15T17:00:37;10.77;;;5.13;;
51862;SDS011;37900;52.996;6.278;2023-02-15T17:05:45;7.45;;;4.72;;
51862;SDS011;37900;52.996;6.278;2023-02-15T17:08:16;10.02;;;5.43;;
51862;SDS011;37900;52.996;6.278;2023-02-15T17:19:30;7.95;;;4.97;;
51862;SDS011;37900;52.996;6.278;2023-02-15T17:22:02;11.07;;;5.13;;
51862;SDS011;37900;52.996;6.278;2023-02-15T17:24:40;7.25;;;4.85;;
51862;SDS011;37900;52.996;6.278;2023-02-15T17:27:20;12.15;;;5.15;;
51862;SDS011;37900;52.996;6.278;2023-02-15T17:32:23;10.75;;;5.25;;
51862;SDS011;37900;52.996;6.278;2023-02-15T17:34:57;7.07;;;4.63;;
51862;SDS011;37900;52.996;6.278;2023-02-15T17:37:41;7.35;;;4.78;;
51862;SDS011;37900;52.996;6.278;2023-02-15T17:40:26;5.93;;;4.57;;
51862;SDS011;37900;52.996;6.278;2023-02-15T17:42:53;5.97;;;3.90;;
51862;SDS011;37900;52.996;6.278;2023-02-15T17:45:20;11.90;;;5.82;;
51862;SDS011;37900;52.996;6.278;2023-02-15T17:47:47;5.85;;;4.85;;
51862;SDS011;37900;52.996;6.278;2023-02-15T17:50:24;8.40;;;3.90;;
51862;SDS011;37900;52.996;6.278;2023-02-15T17:52:52;9.02;;;5.00;;
51862;SDS011;37900;52.996;6.278;2023-02-15T17:55:20;8.48;;;5.53;;
51862;SDS011;37900;52.996;6.278;2023-02-15T17:58:15;6.45;;;4.78;;
51862;SDS011;37900;52.996;6.278;2023-02-15T18:00:44;6.10;;;4.22;;
51862;SDS011;37900;52.996;6.278;2023-02-15T18:03:37;6.47;;;4.22;;
51862;SDS011;37900;52.996;6.278;2023-02-15T18:06:28;5.53;;;4.40;;
51862;SDS011;37900;52.996;6.278;2023-02-15T18:09:13;5.63;;;4.82;;
51862;SDS011;37900;52.996;6.278;2023-02-15T18:11:58;7.18;;;4.65;;
51862;SDS011;37900;52.996;6.278;2023-02-15T18:14:24;6.30;;;4.60;;
51862;SDS011;37900;52.996;6.278;2023-02-15T18:16:50;7.03;;;4.72;;
51862;SDS011;37900;52.996;6.278;2023-02-15T18:19:26;6.18;;;4.03;;
51862;SDS011;37900;52.996;6.278;2023-02-15T18:21:52;7.00;;;4.53;;
51862;SDS011;37900;52.996;6.278;2023-02-15T18:24:23;6.93;;;4.18;;
51862;SDS011;37900;52.996;6.278;2023-02-15T18:26:51;7.65;;;4.97;;
51862;SDS011;37900;52.996;6.278;2023-02-15T18:31:44;5.75;;;4.57;;
51862;SDS011;37900;52.996;6.278;2023-02-15T18:34:21;6.68;;;4.43;;
51862;SDS011;37900;52.996;6.278;2023-02-15T18:36:55;4.97;;;4.45;;
51862;SDS011;37900;52.996;6.278;2023-02-15T18:42:25;5.38;;;4.25;;
51862;SDS011;37900;52.996;6.278;2023-02-15T18:47:40;6.45;;;4.50;;
51862;SDS011;37900;52.996;6.278;2023-02-15T18:50:06;6.53;;;4.30;;
51862;SDS011;37900;52.996;6.278;2023-02-15T18:52:32;6.38;;;4.40;;
51862;SDS011;37900;52.996;6.278;2023-02-15T18:55:02;5.60;;;4.47;;
51862;SDS011;37900;52.996;6.278;2023-02-15T18:57:37;5.40;;;4.40;;
51862;SDS011;37900;52.996;6.278;2023-02-15T19:00:03;5.80;;;4.40;;
51862;SDS011;37900;52.996;6.278;2023-02-15T19:02:31;7.07;;;4.43;;
51862;SDS011;37900;52.996;6.278;2023-02-15T19:04:56;6.70;;;4.20;;
51862;SDS011;37900;52.996;6.278;2023-02-15T19:07:22;4.88;;;3.97;;
51862;SDS011;37900;52.996;6.278;2023-02-15T19:09:57;8.07;;;4.30;;
51862;SDS011;37900;52.996;6.278;2023-02-15T19:12:25;7.32;;;4.13;;
51862;SDS011;37900;52.996;6.278;2023-02-15T19:14:52;7.70;;;4.88;;
51862;SDS011;37900;52.996;6.278;2023-02-15T19:17:20;5.40;;;4.57;;
51862;SDS011;37900;52.996;6.278;2023-02-15T19:19:46;5.78;;;4.82;;
51862;SDS011;37900;52.996;6.278;2023-02-15T19:22:17;5.60;;;4.55;;